Time;durP1;ratioP1;P1;durP2;ratioP2;P2;SDS_P1;SDS_P2;PMS_P1;PMS_P2;Temp;Humidity;BMP_temperature;BMP_pressure;BME280_temperature;BME280_humidity;BME280_pressure;Samples;Min_cycle;Max_cycle;Signal;HPM_P1;HPM_P2
2022/03/29 00:00:17;;;;;;;18.37;13.47;;;;;;;14.99;58.72;101191.59;5020150;28;20175;-64
2022/03/29 00:02:43;;;;;;;32.60;22.93;;;;;;;12.29;55.51;101199.13;5024810;28;20196;-75
2022/03/29 00:05:09;;;;;;;36.53;22.40;;;;;;;10.82;59.68;101206.75;5033857;28;20428;-77
2022/03/29 00:07:34;;;;;;;32.83;22.97;;;;;;;10.06;62.19;101208.88;5024667;28;20532;-76
2022/03/29 00:10:01;;;;;;;32.60;22.87;;;;;;;9.56;63.54;101208.72;5020761;28;20417;-75
2022/03/29 00:12:27;;;;;;;29.20;20.37;;;;;;;8.86;65.51;101207.19;5040515;28;20198;-76
2022/03/29 00:14:52;;;;;;;31.00;23.80;;;;;;;8.96;65.36;101195.28;5040102;28;20412;-77
2022/03/29 00:17:18;;;;;;;30.30;22.17;;;;;;;8.65;66.18;101196.25;5039985;28;20547;-76
2022/03/29 00:19:43;;;;;;;28.93;22.50;;;;;;;8.91;66.61;101189.94;5030122;28;20190;-77
2022/03/29 00:22:08;;;;;;;31.50;22.10;;;;;;;9.12;65.14;101188.72;5020023;28;20181;-76
2022/03/29 00:24:33;;;;;;;33.47;22.13;;;;;;;9.09;65.50;101189.50;5020050;28;20261;-76
2022/03/29 00:26:59;;;;;;;31.40;21.87;;;;;;;8.88;65.48;101191.59;5020589;28;20195;-78
2022/03/29 00:29:24;;;;;;;36.87;24.00;;;;;;;8.98;65.42;101183.16;5019817;28;20483;-75
2022/03/29 00:31:49;;;;;;;36.77;22.17;;;;;;;9.13;65.51;101179.16;5019968;28;20167;-76
2022/03/29 00:34:15;;;;;;;33.50;22.37;;;;;;;9.22;65.44;101184.59;5019914;28;20227;-76
2022/03/29 00:36:40;;;;;;;36.00;22.87;;;;;;;9.15;65.21;101167.97;5028863;28;20175;-76
2022/03/29 00:39:05;;;;;;;33.97;23.30;;;;;;;8.96;65.03;101173.56;5040071;28;20468;-77
2022/03/29 00:41:31;;;;;;;39.20;25.20;;;;;;;9.25;63.70;101163.81;5039213;28;20166;-76
2022/03/29 00:43:57;;;;;;;29.33;20.63;;;;;;;8.82;65.63;101165.44;5038669;28;20253;-75
2022/03/29 00:46:22;;;;;;;30.60;22.30;;;;;;;8.86;65.14;101162.06;5039286;28;20240;-76
2022/03/29 00:48:48;;;;;;;30.90;21.27;;;;;;;8.86;64.89;101154.28;5039460;28;20214;-76
2022/03/29 00:51:13;;;;;;;31.60;21.33;;;;;;;8.86;65.04;101146.47;5039294;28;20167;-78
2022/03/29 00:53:38;;;;;;;37.30;22.90;;;;;;;8.86;64.34;101149.06;5040556;28;20582;-77
2022/03/29 00:56:04;;;;;;;30.40;22.07;;;;;;;8.98;65.20;101141.56;5038772;28;20269;-77
2022/03/29 00:58:30;;;;;;;30.13;20.47;;;;;;;9.05;64.65;101140.88;5039542;28;20259;-77
2022/03/29 01:00:58;;;;;;;28.70;19.93;;;;;;;9.41;63.97;101141.63;5039646;28;20170;-78
2022/03/29 01:03:24;;;;;;;36.03;23.03;;;;;;;9.23;63.92;101136.91;5039461;28;20413;-77
2022/03/29 01:05:49;;;;;;;32.03;21.60;;;;;;;9.07;64.23;101128.75;5039454;28;20421;-76
2022/03/29 01:08:14;;;;;;;33.60;21.03;;;;;;;9.23;64.11;101126.50;5039394;28;20194;-77
2022/03/29 01:10:43;;;;;;;32.03;21.90;;;;;;;8.95;64.56;101118.09;5030946;28;20174;-76
2022/03/29 01:13:09;;;;;;;30.57;20.77;;;;;;;9.23;63.99;101118.72;5019304;28;20171;-75
2022/03/29 01:15:36;;;;;;;30.23;20.67;;;;;;;8.74;64.25;101119.38;5019887;28;20786;-76
2022/03/29 01:18:01;;;;;;;29.43;20.50;;;;;;;8.99;64.11;101109.50;5019311;28;20253;-75
2022/03/29 01:20:29;;;;;;;27.90;19.70;;;;;;;8.92;63.27;101111.09;5019197;28;20403;-77
2022/03/29 01:22:56;;;;;;;25.20;19.33;;;;;;;8.88;63.64;101106.66;5019053;28;20170;-77
2022/03/29 01:25:27;;;;;;;25.87;18.23;;;;;;;8.61;64.66;101106.91;5019099;28;20509;-75
2022/03/29 01:27:53;;;;;;;27.07;19.63;;;;;;;9.05;63.15;101108.75;5019040;28;20461;-77
2022/03/29 01:30:20;;;;;;;31.10;19.90;;;;;;;9.12;63.37;101108.06;5018315;28;20440;-72
2022/03/29 01:32:50;;;;;;;34.33;20.27;;;;;;;9.26;63.59;101095.34;5018889;28;20774;-78
2022/03/29 01:35:17;;;;;;;32.83;20.00;;;;;;;8.89;63.47;101090.25;5019245;28;20415;-75
2022/03/29 01:37:42;;;;;;;28.53;21.00;;;;;;;8.71;64.08;101098.50;5019545;28;20402;-78
2022/03/29 01:40:13;;;;;;;27.63;19.07;;;;;;;9.00;63.92;101093.06;5019696;28;20441;-78
2022/03/29 01:42:41;;;;;;;33.17;21.83;;;;;;;8.62;64.35;101084.41;5019339;28;20170;-77
2022/03/29 01:45:07;;;;;;;25.93;19.10;;;;;;;8.73;64.87;101082.94;5019797;28;20641;-79
2022/03/29 01:47:32;;;;;;;36.10;19.80;;;;;;;9.13;63.30;101080.31;5018469;28;20508;-76
2022/03/29 01:49:57;;;;;;;27.20;20.20;;;;;;;8.83;64.07;101081.41;5018448;28;20437;-78
2022/03/29 01:52:23;;;;;;;27.00;19.43;;;;;;;9.16;63.03;101086.47;5018774;28;20170;-78
2022/03/29 01:54:49;;;;;;;23.53;17.83;;;;;;;8.63;64.25;101087.03;5023172;28;20175;-79
2022/03/29 01:57:14;;;;;;;24.97;18.50;;;;;;;8.95;64.13;101079.09;5023311;28;20171;-80
2022/03/29 02:02:23;;;;;;;26.10;17.27;;;;;;;9.02;62.86;101075.75;5018941;28;20189;-78
2022/03/29 02:04:48;;;;;;;22.87;16.80;;;;;;;8.50;64.10;101082.41;5019158;28;20712;-79
2022/03/29 02:07:14;;;;;;;27.13;18.37;;;;;;;9.18;63.04;101076.09;5018812;28;20250;-77
2022/03/29 02:09:39;;;;;;;32.27;18.33;;;;;;;9.16;62.61;101080.38;5018702;28;20265;-78
2022/03/29 02:12:05;;;;;;;26.63;17.57;;;;;;;9.16;63.67;101085.59;5019173;28;20217;-79
2022/03/29 02:14:30;;;;;;;22.83;17.10;;;;;;;9.48;62.48;101065.41;5024318;28;20497;-77
2022/03/29 02:16:56;;;;;;;28.43;17.60;;;;;;;9.35;62.91;101061.72;5024941;28;20413;-76
2022/03/29 02:19:21;;;;;;;27.77;18.70;;;;;;;9.31;62.13;101054.69;5025902;28;20190;-76
2022/03/29 02:21:46;;;;;;;30.53;17.57;;;;;;;8.86;63.54;101060.69;5025031;28;20210;-78
2022/03/29 02:24:12;;;;;;;26.07;19.50;;;;;;;9.21;62.60;101053.63;5025269;28;20228;-75
2022/03/29 02:26:37;;;;;;;26.40;18.73;;;;;;;8.98;63.39;101055.75;5025301;28;20495;-75
2022/03/29 02:29:02;;;;;;;27.33;17.10;;;;;;;9.03;63.94;101053.25;5025071;28;20202;-78
2022/03/29 02:31:28;;;;;;;26.10;17.57;;;;;;;9.24;62.89;101052.81;5025074;28;20577;-75
2022/03/29 02:33:53;;;;;;;26.97;17.90;;;;;;;8.84;63.81;101059.78;5025199;28;20226;-75
2022/03/29 02:36:18;;;;;;;30.20;18.97;;;;;;;9.41;63.16;101055.75;5024184;28;20277;-76
2022/03/29 02:38:44;;;;;;;27.13;16.80;;;;;;;9.48;62.88;101054.16;5025133;28;20214;-76
2022/03/29 02:41:09;;;;;;;28.97;17.43;;;;;;;9.32;62.71;101050.34;5024785;28;20190;-76
2022/03/29 02:43:34;;;;;;;25.60;16.77;;;;;;;9.40;62.78;101049.69;5025062;28;20175;-76
2022/03/29 02:46:00;;;;;;;23.30;16.03;;;;;;;9.51;62.30;101056.78;5025065;28;20174;-76
2022/03/29 02:48:25;;;;;;;25.00;16.23;;;;;;;8.93;64.00;101053.06;5024811;28;20492;-78
2022/03/29 02:50:51;;;;;;;23.87;16.97;;;;;;;8.76;64.20;101054.41;5024750;28;20175;-77
2022/03/29 02:53:16;;;;;;;24.37;17.70;;;;;;;9.44;63.29;101043.69;5025470;28;20179;-79
2022/03/29 02:55:42;;;;;;;21.80;17.00;;;;;;;9.18;64.04;101045.75;5025150;28;20417;-76
2022/03/29 02:58:08;;;;;;;28.17;17.53;;;;;;;9.28;62.94;101039.00;5024967;28;20171;-78
2022/03/29 03:00:33;;;;;;;25.00;16.67;;;;;;;8.86;63.40;101043.38;5025432;28;20457;-79
2022/03/29 03:02:59;;;;;;;28.27;15.97;;;;;;;8.77;64.02;101049.25;5025167;28;20171;-77
2022/03/29 03:05:25;;;;;;;28.23;17.27;;;;;;;9.07;63.89;101050.75;5025151;28;20178;-77
2022/03/29 03:07:50;;;;;;;25.53;16.43;;;;;;;8.51;65.39;101048.66;5025070;28;20445;-79
2022/03/29 03:10:16;;;;;;;24.20;16.00;;;;;;;8.58;65.50;101047.09;5024925;28;20190;-77
2022/03/29 03:12:46;;;;;;;21.60;14.00;;;;;;;8.45;65.55;101051.09;5024616;28;20663;-78
2022/03/29 03:15:13;;;;;;;24.13;13.10;;;;;;;7.98;64.93;101045.59;5025342;28;20193;-79
2022/03/29 03:17:38;;;;;;;27.60;12.07;;;;;;;8.07;63.88;101044.13;5024001;28;20426;-78
2022/03/29 03:20:04;;;;;;;16.80;11.03;;;;;;;8.31;63.05;101042.06;5024625;28;20428;-77
2022/03/29 03:22:30;;;;;;;20.93;11.43;;;;;;;8.74;62.26;101043.97;5024715;28;20201;-78
2022/03/29 03:24:56;;;;;;;17.53;11.80;;;;;;;8.54;62.25;101051.31;5021617;28;20425;-77
2022/03/29 03:27:21;;;;;;;18.03;11.40;;;;;;;8.20;63.53;101052.19;5021266;28;20206;-76
2022/03/29 03:29:47;;;;;;;18.83;10.33;;;;;;;8.24;62.95;101044.53;5021602;28;20615;-76
2022/03/29 03:32:13;;;;;;;18.30;10.60;;;;;;;7.90;63.08;101048.00;5021436;28;20170;-77
2022/03/29 03:34:38;;;;;;;19.83;9.27;;;;;;;8.47;61.95;101038.16;5020434;28;20225;-76
2022/03/29 03:37:04;;;;;;;15.40;9.57;;;;;;;7.92;63.39;101047.22;5021693;28;20164;-75
2022/03/29 03:39:34;;;;;;;13.40;9.60;;;;;;;7.77;63.68;101049.41;5021213;28;20170;-77
2022/03/29 03:42:03;;;;;;;13.40;9.50;;;;;;;7.82;63.66;101057.31;5021105;28;20456;-76
2022/03/29 03:44:28;;;;;;;15.53;9.00;;;;;;;7.52;64.79;101061.75;5020980;28;20448;-77
2022/03/29 03:46:53;;;;;;;20.80;9.60;;;;;;;7.53;64.89;101058.28;5021198;28;20545;-78
2022/03/29 03:49:19;;;;;;;18.73;8.87;;;;;;;7.25;66.31;101048.88;5021203;28;20533;-77
2022/03/29 03:51:45;;;;;;;21.00;8.67;;;;;;;6.95;67.24;101041.97;5021767;28;20556;-76
2022/03/29 03:54:10;;;;;;;17.23;8.27;;;;;;;7.14;66.71;101048.56;5020380;28;20181;-78
2022/03/29 03:56:35;;;;;;;14.47;7.60;;;;;;;6.97;66.85;101048.09;5020978;28;20170;-76
2022/03/29 03:59:01;;;;;;;18.40;7.77;;;;;;;7.32;66.29;101048.22;5021071;28;20171;-77
2022/03/29 04:01:27;;;;;;;19.67;7.37;;;;;;;7.36;66.40;101052.66;5020864;28;20175;-77
2022/03/29 04:03:52;;;;;;;22.80;7.67;;;;;;;7.30;66.02;101049.88;5020777;28;20194;-77
2022/03/29 04:06:17;;;;;;;21.13;7.90;;;;;;;7.56;64.96;101037.66;5021325;28;20405;-77
2022/03/29 04:08:43;;;;;;;20.20;7.40;;;;;;;7.10;65.86;101040.66;5020773;28;20349;-77
2022/03/29 04:11:08;;;;;;;19.90;6.97;;;;;;;7.06;66.17;101050.97;5020861;28;20211;-77
2022/03/29 04:13:34;;;;;;;19.93;7.17;;;;;;;7.43;66.17;101051.13;5021057;28;20171;-77
2022/03/29 04:16:00;;;;;;;26.60;8.07;;;;;;;7.31;65.90;101045.59;5020734;28;20173;-76
2022/03/29 04:18:25;;;;;;;20.80;7.10;;;;;;;7.40;65.52;101057.09;5020625;28;20504;-77
2022/03/29 04:20:51;;;;;;;16.10;6.53;;;;;;;7.36;65.43;101054.34;5021071;28;20167;-77
2022/03/29 04:23:16;;;;;;;15.20;6.90;;;;;;;7.51;65.41;101041.81;5020264;28;20180;-76
2022/03/29 04:25:41;;;;;;;21.03;8.90;;;;;;;7.56;65.14;101036.75;5020315;28;20186;-76
2022/03/29 04:28:07;;;;;;;18.03;6.30;;;;;;;7.34;65.75;101037.88;5020665;28;20195;-77
2022/03/29 04:30:32;;;;;;;15.80;6.40;;;;;;;7.20;66.33;101038.38;5020396;28;20461;-76
2022/03/29 04:32:58;;;;;;;13.13;6.50;;;;;;;7.11;66.42;101032.06;5019850;28;20467;-77
2022/03/29 04:35:23;;;;;;;20.10;6.93;;;;;;;6.99;66.40;101030.00;5020439;28;20174;-76
2022/03/29 04:37:48;;;;;;;17.23;5.97;;;;;;;6.64;67.51;101035.88;5020321;28;20170;-77
2022/03/29 04:40:14;;;;;;;17.00;6.20;;;;;;;7.12;66.45;101026.03;5020243;28;20175;-77
2022/03/29 04:42:48;;;;;;;21.03;5.97;;;;;;;6.88;66.33;101019.31;5020656;28;20163;-78
2022/03/29 04:45:16;;;;;;;24.63;6.47;;;;;;;6.89;66.33;101026.25;5019684;28;20217;-77
2022/03/29 04:47:42;;;;;;;21.30;7.20;;;;;;;6.89;65.92;101026.25;5020692;28;20476;-77
2022/03/29 04:50:11;;;;;;;16.13;5.73;;;;;;;6.99;66.26;101027.41;5019432;28;20437;-79
2022/03/29 04:52:38;;;;;;;21.10;6.40;;;;;;;6.91;65.55;101019.41;5026017;28;20815;-77
2022/03/29 04:55:04;;;;;;;16.83;5.77;;;;;;;6.60;66.37;101018.47;5022996;28;20464;-77
2022/03/29 04:57:30;;;;;;;18.47;6.00;;;;;;;6.73;66.43;101018.00;5020249;28;20438;-77
2022/03/29 04:59:55;;;;;;;19.30;6.37;;;;;;;6.58;66.92;101025.34;5019835;28;20512;-78
2022/03/29 05:02:21;;;;;;;21.20;6.83;;;;;;;6.71;66.51;101018.81;5019497;28;20183;-77
2022/03/29 05:04:46;;;;;;;21.70;5.93;;;;;;;6.88;66.10;101019.31;5021164;28;20171;-78
2022/03/29 05:07:11;;;;;;;17.63;6.60;;;;;;;6.71;65.79;101019.69;5019477;28;20202;-77
2022/03/29 05:09:36;;;;;;;25.70;6.43;;;;;;;6.49;66.71;101030.22;5019635;28;20582;-77
2022/03/29 05:12:02;;;;;;;19.87;6.40;;;;;;;6.08;67.40;101028.09;5019500;28;20171;-76
2022/03/29 05:14:28;;;;;;;20.63;6.33;;;;;;;6.22;68.00;101025.94;5019111;28;20182;-77
2022/03/29 05:16:53;;;;;;;21.37;5.80;;;;;;;6.64;66.62;101024.63;5019073;28;20300;-77
2022/03/29 05:19:18;;;;;;;22.03;4.70;;;;;;;6.36;67.05;101026.38;5019525;28;20175;-78
2022/03/29 05:21:44;;;;;;;20.17;6.43;;;;;;;6.66;66.40;101018.69;5019266;28;20445;-77
2022/03/29 05:24:09;;;;;;;23.20;6.00;;;;;;;6.88;65.63;101011.53;5019314;28;20170;-77
2022/03/29 05:26:35;;;;;;;16.80;7.90;;;;;;;6.53;66.21;101012.22;5015380;28;20167;-77
2022/03/29 05:29:02;;;;;;;23.77;7.13;;;;;;;6.62;65.84;101014.25;5026500;28;20624;-76
2022/03/29 05:31:27;;;;;;;21.47;6.37;;;;;;;6.81;66.20;101017.38;5013967;28;20437;-77
2022/03/29 05:33:53;;;;;;;15.77;5.20;;;;;;;6.59;66.02;101011.56;5011108;28;20470;-77
2022/03/29 05:36:18;;;;;;;21.43;6.53;;;;;;;6.71;65.82;101009.34;5002920;28;20198;-77
2022/03/29 05:38:48;;;;;;;19.83;6.50;;;;;;;6.80;64.76;101006.13;4999523;28;20194;-76
2022/03/29 05:41:15;;;;;;;29.90;8.87;;;;;;;6.42;66.27;101017.94;4999073;28;20176;-76
2022/03/29 05:43:41;;;;;;;15.17;5.80;;;;;;;6.92;65.06;101013.38;4999181;28;20457;-76
2022/03/29 05:48:55;;;;;;;25.17;7.10;;;;;;;6.44;65.13;101006.78;5018112;28;20213;-78
2022/03/29 05:51:22;;;;;;;15.33;5.80;;;;;;;7.10;63.96;101007.84;5016660;28;20528;-75
2022/03/29 05:53:47;;;;;;;22.87;5.90;;;;;;;7.50;62.91;101010.66;5014109;28;20430;-77
2022/03/29 05:56:13;;;;;;;24.80;6.23;;;;;;;7.68;61.70;101016.31;5010752;28;20851;-78
2022/03/29 05:58:38;;;;;;;18.53;5.60;;;;;;;7.08;63.18;101022.47;5014286;28;20237;-76
2022/03/29 06:01:03;;;;;;;15.23;6.30;;;;;;;7.39;62.32;101006.06;5016432;28;20245;-78
2022/03/29 06:03:28;;;;;;;19.43;6.43;;;;;;;7.86;61.88;101004.63;5014042;28;20182;-78
2022/03/29 06:05:54;;;;;;;24.17;6.07;;;;;;;9.49;57.76;101006.47;5014385;28;20207;-77
2022/03/29 06:08:19;;;;;;;17.30;5.87;;;;;;;10.54;53.42;101002.94;5014167;28;20547;-77
2022/03/29 06:10:45;;;;;;;12.83;4.70;;;;;;;10.64;52.33;100996.16;5017680;28;20190;-77
2022/03/29 06:13:12;;;;;;;13.53;4.70;;;;;;;11.55;49.29;100992.81;5012054;28;20248;-76
2022/03/29 06:15:37;;;;;;;13.70;4.80;;;;;;;11.59;49.02;100993.75;5017855;28;20190;-76
2022/03/29 06:18:03;;;;;;;14.70;5.93;;;;;;;11.69;48.99;100984.25;5018324;28;20899;-76
2022/03/29 06:20:29;;;;;;;15.30;5.10;;;;;;;11.52;49.04;100994.56;5018254;28;20253;-77
2022/03/29 06:22:54;;;;;;;10.37;4.87;;;;;;;11.04;50.58;100999.25;5017666;28;20476;-77
2022/03/29 06:25:20;;;;;;;14.93;5.50;;;;;;;11.68;49.16;100992.97;5010328;28;20270;-76
2022/03/29 06:27:45;;;;;;;16.43;5.63;;;;;;;12.32;46.55;100986.53;5004320;28;20198;-76
2022/03/29 06:30:11;;;;;;;18.17;6.20;;;;;;;12.92;45.43;100986.81;5011161;28;20241;-76
2022/03/29 06:32:50;;;;;;;17.33;5.23;;;;;;;11.92;47.76;100987.06;5012775;28;20187;-76
2022/03/29 06:35:21;;;;;;;20.63;6.17;;;;;;;13.03;45.13;100986.84;5017739;28;20421;-75
2022/03/29 06:37:56;;;;;;;15.70;5.30;;;;;;;13.06;44.52;100985.13;5016090;28;20420;-75
2022/03/29 06:40:23;;;;;;;20.67;6.13;;;;;;;13.12;44.76;100990.41;5017940;28;20728;-76
2022/03/29 06:42:49;;;;;;;14.30;5.43;;;;;;;13.20;44.49;100984.31;5017729;28;20445;-77
2022/03/29 06:45:14;;;;;;;13.13;5.20;;;;;;;12.44;45.83;100983.97;5020603;28;20452;-75
2022/03/29 06:47:41;;;;;;;14.57;5.20;;;;;;;13.18;44.20;100986.03;5022785;28;20469;-79
2022/03/29 06:50:08;;;;;;;18.90;7.60;;;;;;;14.52;41.91;100979.94;5034993;28;20178;-75
2022/03/29 06:52:37;;;;;;;14.00;5.23;;;;;;;14.48;42.49;100977.34;5034874;28;20394;-75
2022/03/29 06:55:04;;;;;;;14.17;5.57;;;;;;;13.97;42.22;100979.19;5017269;28;20448;-75
2022/03/29 06:57:29;;;;;;;11.97;4.87;;;;;;;12.94;44.12;100975.50;5017313;28;20400;-74
2022/03/29 06:59:55;;;;;;;20.43;5.50;;;;;;;14.23;41.18;100976.50;5020124;28;20446;-77
2022/03/29 07:02:20;;;;;;;9.83;4.80;;;;;;;14.50;42.95;100977.34;5034751;28;20182;-78
2022/03/29 07:04:46;;;;;;;7.93;4.20;;;;;;;13.72;42.57;100986.16;5041872;28;20178;-80
2022/03/29 07:07:11;;;;;;;9.70;4.30;;;;;;;12.62;44.21;100996.28;5024561;28;20472;-77
2022/03/29 07:12:21;;;;;;;13.07;4.80;;;;;;;12.73;44.51;100986.75;5041371;28;20240;-78
2022/03/29 07:14:46;;;;;;;9.10;4.80;;;;;;;12.82;43.67;100991.16;5041378;28;20754;-78
2022/03/29 07:17:13;;;;;;;8.37;4.30;;;;;;;12.88;43.89;100979.81;5041223;28;20178;-77
2022/03/29 07:19:39;;;;;;;18.30;5.77;;;;;;;14.44;40.60;100975.59;5041319;28;20253;-78
2022/03/29 07:22:04;;;;;;;12.03;5.20;;;;;;;14.51;39.96;100973.84;5041236;28;20426;-77
2022/03/29 07:24:30;;;;;;;10.20;4.67;;;;;;;13.02;42.05;100982.50;5040989;28;20795;-77
2022/03/29 07:26:56;;;;;;;11.13;5.00;;;;;;;13.61;41.82;100973.03;5041033;28;20471;-75
2022/03/29 07:29:21;;;;;;;7.33;4.10;;;;;;;14.75;40.64;100972.06;5041227;28;20209;-75
2022/03/29 07:31:47;;;;;;;11.63;5.47;;;;;;;14.15;41.22;100968.69;5041331;28;20261;-78
2022/03/29 07:34:12;;;;;;;9.07;4.50;;;;;;;14.07;40.89;100961.69;5041068;28;20222;-76
2022/03/29 07:36:38;;;;;;;13.37;5.20;;;;;;;12.97;42.77;100980.75;5040632;28;20189;-77
2022/03/29 07:39:04;;;;;;;15.13;4.90;;;;;;;13.04;43.06;100976.38;5041268;28;20451;-75
2022/03/29 07:41:29;;;;;;;9.00;4.00;;;;;;;12.66;43.56;100979.72;5040745;28;20544;-74
2022/03/29 07:43:54;;;;;;;11.00;4.33;;;;;;;12.25;44.99;100980.38;5040921;28;20224;-75
2022/03/29 07:46:20;;;;;;;9.87;4.50;;;;;;;12.35;43.92;100971.72;5041150;28;20177;-75
2022/03/29 07:48:45;;;;;;;11.80;4.10;;;;;;;11.70;44.83;100971.19;5041988;28;20518;-74
2022/03/29 07:51:11;;;;;;;8.53;3.90;;;;;;;12.84;43.70;100970.22;5041364;28;20178;-76
2022/03/29 07:53:36;;;;;;;11.00;4.50;;;;;;;11.78;45.00;100976.50;5027441;28;20185;-75
2022/03/29 07:56:02;;;;;;;12.70;4.77;;;;;;;12.51;43.18;100977.03;5020620;28;20179;-75
2022/03/29 07:58:27;;;;;;;9.00;4.90;;;;;;;12.99;42.32;100975.53;5020481;28;20282;-75
2022/03/29 08:00:53;;;;;;;11.27;5.00;;;;;;;13.38;41.75;100973.03;5018569;28;20595;-79
2022/03/29 08:03:20;;;;;;;13.10;4.53;;;;;;;13.52;40.41;100970.41;5020900;28;20178;-76
2022/03/29 08:05:47;;;;;;;10.10;4.77;;;;;;;14.85;37.91;100954.50;5019959;28;20555;-77
2022/03/29 08:08:16;;;;;;;7.90;3.93;;;;;;;14.10;39.88;100954.69;5021029;28;20504;-79
2022/03/29 08:10:43;;;;;;;13.40;4.90;;;;;;;13.24;41.47;100957.25;5019081;28;20464;-78
2022/03/29 08:13:10;;;;;;;8.73;3.80;;;;;;;12.41;43.05;100966.53;5019939;28;20433;-78
2022/03/29 08:15:38;;;;;;;10.90;4.33;;;;;;;13.50;41.29;100956.47;5020962;28;20392;-77
2022/03/29 08:18:05;;;;;;;7.83;4.77;;;;;;;13.38;40.62;100966.06;5020409;28;20487;-78
2022/03/29 08:20:30;;;;;;;12.40;4.93;;;;;;;14.16;38.35;100948.56;5020284;28;20425;-76
2022/03/29 08:23:00;;;;;;;6.73;4.10;;;;;;;14.97;36.89;100950.06;5020147;28;20422;-76
2022/03/29 08:25:27;;;;;;;8.23;4.10;;;;;;;16.44;35.18;100941.00;5018930;28;20175;-74
2022/03/29 08:27:54;;;;;;;11.27;4.30;;;;;;;16.01;34.88;100933.56;5019738;28;20556;-76
2022/03/29 08:30:19;;;;;;;7.83;3.50;;;;;;;14.05;37.85;100945.97;5020276;28;20665;-75
2022/03/29 08:32:45;;;;;;;7.63;4.53;;;;;;;14.79;37.30;100943.16;5019190;28;20498;-76
2022/03/29 08:35:12;;;;;;;12.53;4.13;;;;;;;15.46;36.04;100935.75;5019639;28;20182;-75
2022/03/29 08:37:39;;;;;;;7.80;3.87;;;;;;;16.60;33.92;100920.66;5019873;28;20169;-76
2022/03/29 08:40:07;;;;;;;7.97;3.93;;;;;;;16.76;33.26;100923.06;5019718;28;20438;-76
2022/03/29 08:42:32;;;;;;;8.37;4.27;;;;;;;16.55;32.85;100927.72;5019689;28;20445;-76
2022/03/29 08:44:59;;;;;;;10.40;4.10;;;;;;;16.89;32.77;100919.41;5019846;28;20430;-76
2022/03/29 08:47:25;;;;;;;6.87;4.23;;;;;;;16.99;33.21;100921.03;5019574;28;20526;-75
2022/03/29 08:49:50;;;;;;;14.73;4.40;;;;;;;16.49;33.80;100919.88;5019633;28;20458;-77
2022/03/29 08:52:17;;;;;;;9.87;4.70;;;;;;;15.56;35.48;100927.78;5019768;28;20249;-77
2022/03/29 08:54:43;;;;;;;8.70;4.00;;;;;;;15.38;35.93;100921.78;5019390;28;20170;-78
2022/03/29 08:57:09;;;;;;;6.37;4.23;;;;;;;16.35;34.28;100919.19;5019550;28;20406;-79
2022/03/29 08:59:34;;;;;;;7.50;4.53;;;;;;;16.59;33.21;100913.63;5019667;28;20511;-77
2022/03/29 09:02:08;;;;;;;5.70;3.77;;;;;;;17.67;31.51;100916.47;5019234;28;20490;-76
2022/03/29 09:04:33;;;;;;;8.23;3.70;;;;;;;16.12;33.57;100909.78;5019383;28;20213;-77
2022/03/29 09:07:01;;;;;;;9.33;4.73;;;;;;;15.74;34.45;100903.13;5019630;28;20396;-76
2022/03/29 09:09:40;;;;;;;9.93;3.70;;;;;;;18.04;31.28;100905.31;5019310;28;20167;-76
2022/03/29 09:12:16;;;;;;;5.40;3.90;;;;;;;16.75;32.58;100906.41;5018651;28;20835;-76
2022/03/29 09:14:57;;;;;;;10.87;4.00;;;;;;;16.99;31.96;100907.88;5019597;28;20417;-79
2022/03/29 09:17:38;;;;;;;8.27;3.80;;;;;;;16.93;32.47;100907.94;5018427;28;20432;-77
2022/03/29 09:20:12;;;;;;;7.40;4.00;;;;;;;17.95;30.33;100897.56;5019276;28;20426;-78
2022/03/29 09:22:43;;;;;;;6.07;3.73;;;;;;;18.17;30.63;100901.53;5017347;28;20410;-77
2022/03/29 09:25:11;;;;;;;6.03;3.60;;;;;;;16.27;32.92;100899.09;5018956;28;20402;-76
2022/03/29 09:27:59;;;;;;;6.37;4.70;;;;;;;16.61;32.98;100901.31;5017901;28;20597;-76
2022/03/29 09:30:26;;;;;;;9.50;4.60;;;;;;;16.00;33.53;100902.91;5018871;28;20445;-79
2022/03/29 09:33:04;;;;;;;9.10;4.20;;;;;;;14.15;36.36;100915.34;5018194;28;20680;-78
2022/03/29 09:35:30;;;;;;;7.90;4.07;;;;;;;16.95;32.06;100910.56;5019634;28;20756;-80
2022/03/29 09:37:56;;;;;;;6.70;4.37;;;;;;;17.60;30.80;100899.91;5019043;28;20466;-79
2022/03/29 09:40:31;;;;;;;6.87;4.33;;;;;;;17.21;31.99;100896.13;5018297;28;20466;-78
2022/03/29 09:43:10;;;;;;;8.67;4.00;;;;;;;16.22;32.82;100897.41;5019071;28;20253;-78
2022/03/29 09:45:43;;;;;;;8.20;4.30;;;;;;;15.64;32.90;100899.69;5018722;28;20414;-78
2022/03/29 09:48:18;;;;;;;7.80;4.03;;;;;;;16.54;31.85;100888.28;5018606;28;20945;-77
2022/03/29 09:50:44;;;;;;;11.53;3.90;;;;;;;17.91;29.85;100885.28;5018512;28;20406;-78
2022/03/29 09:53:39;;;;;;;7.57;4.27;;;;;;;17.42;30.95;100876.47;5018839;28;20468;-78
2022/03/29 09:56:06;;;;;;;9.27;4.37;;;;;;;16.45;31.53;100871.72;5018246;28;20221;-78
2022/03/29 09:58:32;;;;;;;9.23;4.10;;;;;;;17.71;29.89;100870.72;5018453;28;20438;-78
2022/03/29 10:00:57;;;;;;;7.37;3.87;;;;;;;16.86;30.94;100868.53;5018485;28;20446;-78
2022/03/29 10:03:24;;;;;;;10.07;3.90;;;;;;;17.13;30.52;100865.53;5018768;28;20254;-76
2022/03/29 10:05:50;;;;;;;6.77;3.97;;;;;;;17.08;30.32;100861.22;5018700;28;20174;-76
2022/03/29 10:11:01;;;;;;;7.50;3.93;;;;;;;18.43;30.17;100860.56;5018886;28;20846;-77
2022/03/29 10:13:28;;;;;;;8.67;4.80;;;;;;;18.30;29.88;100856.44;5018771;28;20449;-80
2022/03/29 10:15:54;;;;;;;7.60;4.10;;;;;;;18.81;28.49;100853.56;5017914;28;20497;-80
2022/03/29 10:18:24;;;;;;;6.53;3.57;;;;;;;18.15;28.81;100860.25;5018227;28;20467;-78
2022/03/29 10:20:49;;;;;;;5.53;3.67;;;;;;;18.89;28.09;100855.16;5018857;28;20812;-78
2022/03/29 10:23:15;;;;;;;4.97;3.80;;;;;;;17.99;29.21;100846.47;5018528;28;20437;-77
2022/03/29 10:25:41;;;;;;;6.60;3.70;;;;;;;17.79;29.16;100850.34;5018223;28;20174;-79
2022/03/29 10:28:07;;;;;;;7.63;4.20;;;;;;;18.15;28.81;100845.28;5017984;28;20482;-78
2022/03/29 10:30:38;;;;;;;5.90;3.80;;;;;;;18.52;28.68;100841.88;5018437;28;20429;-76
2022/03/29 10:33:26;;;;;;;6.83;3.97;;;;;;;18.35;29.30;100836.09;5019424;28;20528;-75
2022/03/29 10:36:10;;;;;;;6.07;4.00;;;;;;;17.97;29.54;100849.16;5021626;28;20424;-75
2022/03/29 10:38:47;;;;;;;7.00;4.17;;;;;;;17.65;29.33;100844.44;5021989;28;20429;-75
2022/03/29 10:41:34;;;;;;;5.47;3.60;;;;;;;18.34;28.57;100827.28;5024413;28;20417;-75
2022/03/29 10:44:08;;;;;;;7.10;4.37;;;;;;;18.22;28.83;100834.59;5021652;28;20440;-75
2022/03/29 10:46:37;;;;;;;8.70;4.37;;;;;;;17.75;29.83;100838.13;5021378;28;20409;-75
2022/03/29 10:49:34;;;;;;;6.73;4.00;;;;;;;18.49;27.63;100839.28;5021760;28;20465;-76
2022/03/29 10:52:05;;;;;;;5.17;3.83;;;;;;;17.50;26.74;100841.19;5021032;28;20496;-75
2022/03/29 10:54:31;;;;;;;5.23;3.60;;;;;;;17.33;28.97;100830.94;5021591;28;20417;-76
2022/03/29 10:56:57;;;;;;;10.23;3.73;;;;;;;17.51;28.67;100820.97;5021391;28;20508;-75
2022/03/29 10:59:23;;;;;;;5.20;3.90;;;;;;;16.66;30.69;100830.19;5021649;28;20449;-75
2022/03/29 11:02:20;;;;;;;6.60;4.00;;;;;;;16.57;30.65;100819.78;5021337;28;20425;-75
2022/03/29 11:05:07;;;;;;;5.23;3.80;;;;;;;17.13;30.23;100827.75;5021076;28;20284;-75
2022/03/29 11:07:35;;;;;;;7.50;3.67;;;;;;;18.03;29.13;100813.88;5021173;28;20592;-75
2022/03/29 11:10:11;;;;;;;8.47;6.83;;;;;;;17.83;28.51;100822.13;5021766;28;20500;-76
2022/03/29 11:12:38;;;;;;;6.93;4.40;;;;;;;18.28;28.33;100803.69;5015601;28;20459;-79
2022/03/29 11:15:38;;;;;;;5.80;3.63;;;;;;;18.60;30.68;100804.72;5021553;28;20461;-79
2022/03/29 11:18:36;;;;;;;11.37;4.07;;;;;;;16.99;28.65;100812.16;5021840;28;20444;-79
2022/03/29 11:21:03;;;;;;;7.73;3.90;;;;;;;16.81;29.46;100814.16;5021753;28;20478;-78
2022/03/29 11:23:48;;;;;;;8.47;5.77;;;;;;;17.13;28.52;100815.47;5021164;28;20422;-79
2022/03/29 11:26:15;;;;;;;10.97;4.60;;;;;;;17.52;29.21;100812.16;5003337;28;20800;-75
2022/03/29 11:28:56;;;;;;;8.60;4.13;;;;;;;17.19;29.93;100800.47;5020905;28;20971;-79
2022/03/29 11:31:22;;;;;;;8.47;3.50;;;;;;;15.43;32.01;100800.94;5020047;28;20433;-76
2022/03/29 11:33:49;;;;;;;8.77;4.13;;;;;;;15.89;31.35;100802.25;5020715;28;20462;-79